Sharon, CT (06069)

3:11 AM EST on February 08, 2016 (GMT -0500)
South Ellsworth | | Change Station
CLOSE
Current Station
Personal Weather Station
Location: Sharon, CT
Elevation: 1155 ft
Nearby Weather Stations

Elev 1155 ft 41.80 °N, 73.43 °W | Updated 56 seconds ago

Partly Cloudy
Partly Cloudy
32.7 °F
Feels Like 28 °F
N
5.0
Wind Variable Wind from South
Gusts 5.0 mph

Today
High -- | Low -- °F
--% Chance of Precip.
Yesterday
High -- | Low -- °F
Precip. -- in
Pressure 29.84 in
Visibility 10.0 miles
Clouds Clear
Windchill 28 °F
Dew Point 28 °F
Humidity 82%
Rainfall 0.00 in
Snow Depth Not available.
6:59 AM 5:17 PM
Waning Crescent, 0% visible
METAR KPOU 080753Z 34006KT 10SM CLR 01/M05 A2985 RMK AO2 SLP104 T00061050
Pressure 29.84 in
Visibility 10.0 miles
Clouds Clear
Windchill 28 °F
Dew Point 28 °F
Humidity 82%
Rainfall 0.00 in
Snow Depth Not available.
6:59 AM 5:17 PM
Waning Crescent, 0% visible
METAR KPOU 080753Z 34006KT 10SM CLR 01/M05 A2985 RMK AO2 SLP104 T00061050

10-Day Weather Forecast

Almanac

Astronomy

Feb. 08, 2016 Rise Set
Actual Time
Civil Twilight
Nautical Twilight
Astronomical Twilight
Moon
Length of Visible Light
Length of Day
Tomorrow will be .
, % of the Moon is Illuminated

Today's Extremes

State Highs State Lows

Community

WunderPhotos

Upload Photos

1,891,412 photos uploaded!

WunderBlog® & News

Nearby

Air Quality

  Air Quality AQ Index Pollutant
Not available.

Snow Depth

Station Depth Elevation

Earthquake Activity

City Distance Mag. Time & Date
Minimum magnitude displayed is 2.5.

Coastal Water Temperatures

Place Temperature

Stations

Nearby Weather Stations

Station Location Temp. Windchill Dew Point Humidity Wind Precip. Elev Updated Type
                   

Watches & Warnings

There are currently no watches in effect.